createdAt,value
2023-04-13T00:03:39.813Z,4.83
2023-04-13T00:08:46.779Z,4.92
2023-04-13T00:13:53.383Z,4.73
2023-04-13T00:18:58.947Z,4.48
2023-04-13T00:24:04.709Z,4.31
2023-04-13T00:29:10.190Z,4.25
2023-04-13T00:34:15.664Z,4.10
2023-04-13T00:39:23.241Z,3.98
2023-04-13T00:44:28.677Z,3.88
2023-04-13T00:49:34.804Z,3.85
2023-04-13T00:54:40.778Z,3.85
2023-04-13T00:59:57.202Z,3.90
2023-04-13T01:05:03.379Z,4.02
2023-04-13T01:10:17.276Z,4.13
2023-04-13T01:15:23.258Z,4.20
2023-04-13T01:20:33.010Z,4.25
2023-04-13T01:25:50.718Z,4.20
2023-04-13T01:31:00.330Z,4.21
2023-04-13T01:36:07.854Z,4.20
2023-04-13T01:41:13.879Z,4.14
2023-04-13T01:46:26.534Z,3.96
2023-04-13T01:51:51.496Z,3.85
2023-04-13T01:57:02.092Z,3.84
2023-04-13T02:02:07.957Z,3.64
2023-04-13T02:07:13.861Z,3.46
2023-04-13T02:12:24.399Z,3.34
2023-04-13T02:17:30.097Z,3.40
2023-04-13T02:22:35.693Z,3.29
2023-04-13T02:27:41.470Z,3.32
2023-04-13T02:32:49.644Z,3.30
2023-04-13T02:37:56.087Z,3.24
2023-04-13T02:43:01.550Z,3.40
2023-04-13T02:48:12.480Z,3.57
2023-04-13T02:53:18.452Z,3.47
2023-04-13T02:58:27.148Z,3.47
2023-04-13T03:03:38.010Z,3.46
2023-04-13T03:08:43.896Z,3.40
2023-04-13T03:13:54.867Z,3.42
2023-04-13T03:19:01.385Z,3.42
2023-04-13T03:24:08.741Z,3.40
2023-04-13T03:29:15.119Z,3.23
2023-04-13T03:34:22.838Z,2.99
2023-04-13T03:39:30.196Z,2.83
2023-04-13T03:44:36.643Z,2.79
2023-04-13T03:49:43.322Z,2.85
2023-04-13T03:54:49.100Z,2.97
2023-04-13T03:59:54.659Z,3.08
2023-04-13T04:05:08.429Z,3.15
2023-04-13T04:10:14.745Z,3.21
2023-04-13T04:15:20.740Z,3.28
2023-04-13T04:20:28.555Z,3.43
2023-04-13T04:25:34.488Z,3.71
2023-04-13T04:30:41.031Z,3.99
2023-04-13T04:35:51.365Z,4.22
2023-04-13T04:41:02.257Z,4.43
2023-04-13T04:46:09.047Z,4.75
2023-04-13T04:51:16.898Z,5.07
2023-04-13T04:56:24.028Z,5.32
2023-04-13T05:01:34.959Z,5.57
2023-04-13T05:06:45.301Z,5.90
2023-04-13T05:11:54.861Z,6.26
2023-04-13T05:17:02.011Z,6.66
2023-04-13T05:22:10.105Z,7.10
2023-04-13T05:27:20.062Z,7.68
2023-04-13T05:32:43.860Z,8.40
2023-04-13T05:37:50.124Z,8.83
2023-04-13T05:42:58.858Z,8.92
2023-04-13T05:48:07.232Z,9.00
2023-04-13T05:53:13.096Z,9.18
2023-04-13T05:58:33.504Z,9.66
2023-04-13T06:04:01.159Z,9.94
2023-04-13T06:09:08.919Z,10.15
2023-04-13T06:14:15.242Z,12.34
2023-04-13T06:19:21.526Z,16.36
2023-04-13T06:24:27.325Z,19.85
2023-04-13T06:29:33.233Z,22.22
2023-04-13T06:34:46.293Z,24.42
2023-04-13T06:39:53.526Z,25.92
2023-04-13T06:44:59.993Z,27.40
2023-04-13T06:50:11.541Z,28.40
2023-04-13T06:55:17.652Z,29.53
2023-04-13T07:00:30.195Z,30.38
2023-04-13T07:05:39.843Z,31.01
2023-04-13T07:10:54.435Z,31.16
2023-04-13T07:16:12.439Z,31.46
2023-04-13T07:21:21.820Z,32.56
2023-04-13T07:26:41.145Z,32.61
2023-04-13T07:31:47.915Z,32.37
2023-04-13T07:36:54.276Z,32.03
2023-04-13T07:42:01.722Z,32.64
2023-04-13T07:47:15.305Z,32.06
2023-04-13T07:52:22.484Z,32.46
2023-04-13T07:57:28.561Z,32.76
2023-04-13T08:02:38.807Z,32.81
2023-04-13T08:07:46.973Z,32.89
2023-04-13T08:12:53.681Z,32.91
2023-04-13T08:18:00.037Z,32.85
2023-04-13T08:23:06.543Z,33.04
2023-04-13T08:28:12.195Z,33.55
2023-04-13T08:33:19.459Z,31.60
2023-04-13T08:38:25.203Z,29.94
2023-04-13T08:43:32.974Z,29.87
2023-04-13T08:48:59.075Z,30.04
2023-04-13T08:54:14.898Z,30.81
2023-04-13T08:59:23.054Z,32.05
2023-04-13T09:04:35.648Z,32.27
2023-04-13T09:09:45.825Z,31.05
2023-04-13T09:14:51.448Z,29.45
2023-04-13T09:20:11.176Z,27.13
2023-04-13T09:25:25.726Z,25.84
2023-04-13T09:30:31.376Z,26.73
2023-04-13T09:35:37.888Z,28.02
2023-04-13T09:40:51.525Z,28.67
2023-04-13T09:45:57.020Z,28.87
2023-04-13T09:51:06.523Z,29.01
2023-04-13T09:56:12.235Z,29.80
2023-04-13T10:01:19.061Z,30.30
2023-04-13T10:06:24.890Z,30.61
2023-04-13T10:11:31.029Z,30.37
2023-04-13T10:16:59.141Z,29.64
2023-04-13T10:22:09.386Z,27.59
2023-04-13T10:27:18.816Z,26.36
2023-04-13T10:32:25.990Z,25.13
2023-04-13T10:37:31.662Z,24.13
2023-04-13T10:47:58.343Z,25.87
2023-04-13T10:53:05.565Z,26.46
2023-04-13T10:58:18.433Z,26.58
2023-04-13T11:03:28.577Z,25.67
2023-04-13T11:08:37.180Z,24.15
2023-04-13T11:13:48.380Z,22.93
2023-04-13T11:19:03.667Z,21.99
2023-04-13T11:24:10.232Z,21.19
2023-04-13T11:29:21.091Z,20.49
2023-04-13T11:34:28.804Z,20.27
2023-04-13T11:39:36.671Z,20.68
2023-04-13T11:44:45.675Z,20.43
2023-04-13T11:49:51.637Z,19.86
2023-04-13T11:55:00.658Z,19.50
2023-04-13T12:00:19.906Z,19.23
2023-04-13T12:05:27.456Z,19.15
2023-04-13T12:10:45.251Z,19.17
2023-04-13T12:16:06.052Z,18.77
2023-04-13T12:21:17.710Z,18.32
2023-04-13T12:27:16.385Z,18.19
2023-04-13T12:32:03.911Z,18.27
2023-04-13T12:37:11.549Z,18.11
2023-04-13T12:42:17.369Z,18.23
2023-04-13T12:47:24.598Z,18.62
2023-04-13T12:52:32.375Z,18.93
2023-04-13T12:57:39.810Z,19.15
2023-04-13T13:02:46.092Z,18.99
2023-04-13T13:07:52.027Z,18.81
2023-04-13T13:12:58.010Z,19.04
2023-04-13T13:18:06.838Z,18.96
2023-04-13T13:23:13.036Z,18.78
2023-04-13T13:28:18.739Z,18.87
2023-04-13T13:33:24.534Z,18.78
2023-04-13T13:38:29.951Z,18.67
2023-04-13T13:43:35.935Z,18.58
2023-04-13T13:48:42.304Z,18.49
2023-04-13T13:54:06.579Z,18.22
2023-04-13T13:59:12.881Z,18.10
2023-04-13T14:04:18.859Z,18.16
2023-04-13T14:09:25.462Z,17.96
2023-04-13T14:14:31.938Z,17.78
2023-04-13T14:19:37.433Z,18.11
2023-04-13T14:24:43.229Z,18.45
2023-04-13T14:29:48.574Z,18.27
2023-04-13T14:34:54.898Z,18.09
2023-04-13T14:40:00.682Z,17.78
2023-04-13T14:45:10.661Z,17.47
2023-04-13T14:50:17.085Z,17.27
2023-04-13T14:55:23.119Z,17.11
2023-04-13T15:00:41.222Z,17.04
2023-04-13T15:05:48.274Z,17.04
2023-04-13T15:10:57.713Z,16.98
2023-04-13T15:19:43.684Z,17.16
2023-04-13T15:24:49.247Z,17.12
2023-04-13T15:30:03.759Z,17.05
2023-04-13T15:35:12.783Z,16.97
2023-04-13T15:40:19.485Z,16.91
2023-04-13T15:45:25.057Z,16.84
2023-04-13T15:50:30.773Z,16.77
2023-04-13T15:55:36.228Z,16.77
2023-04-13T16:00:41.903Z,16.78
2023-04-13T16:05:50.203Z,16.75
2023-04-13T16:10:56.167Z,16.64
2023-04-13T16:16:01.554Z,16.51
2023-04-13T16:21:07.564Z,16.34
2023-04-13T16:26:13.094Z,16.11
2023-04-13T16:31:18.628Z,15.88
2023-04-13T16:36:24.455Z,15.70
2023-04-13T16:41:30.708Z,15.52
2023-04-13T16:46:36.470Z,15.35
2023-04-13T16:51:42.707Z,15.19
2023-04-13T16:56:48.910Z,15.04
2023-04-13T17:01:54.773Z,14.86
2023-04-13T17:07:02.577Z,14.64
2023-04-13T17:12:08.404Z,14.41
2023-04-13T17:17:14.488Z,14.18
2023-04-13T17:22:20.758Z,13.94
2023-04-13T17:27:27.283Z,13.68
2023-04-13T17:32:35.315Z,13.45
2023-04-13T17:37:41.579Z,13.25
2023-04-13T17:42:47.504Z,13.04
2023-04-13T17:47:53.429Z,12.79
2023-04-13T17:53:00.477Z,12.59
2023-04-13T17:58:06.448Z,12.42
2023-04-13T18:03:14.289Z,12.27
2023-04-13T18:08:20.462Z,12.13
2023-04-13T18:13:27.492Z,11.96
2023-04-13T18:18:33.356Z,11.81
2023-04-13T18:23:40.563Z,11.63
2023-04-13T18:28:46.800Z,11.43
2023-04-13T18:33:53.201Z,11.11
2023-04-13T18:38:58.848Z,10.80
2023-04-13T18:44:05.074Z,10.53
2023-04-13T18:49:11.667Z,10.18
2023-04-13T18:54:17.859Z,9.90
2023-04-13T18:59:23.392Z,9.62
2023-04-13T19:04:29.007Z,9.37
2023-04-13T19:09:36.787Z,9.12
2023-04-13T19:14:42.897Z,9.06
2023-04-13T19:19:48.770Z,9.02
2023-04-13T19:24:54.296Z,9.01
2023-04-13T19:29:59.962Z,9.31
2023-04-13T19:35:06.580Z,9.59
2023-04-13T19:40:14.114Z,9.91
2023-04-13T19:45:20.461Z,10.11
2023-04-13T19:50:26.001Z,10.27
2023-04-13T19:55:31.815Z,10.35
2023-04-13T20:00:38.469Z,10.36
2023-04-13T20:05:43.891Z,10.34
2023-04-13T20:10:50.258Z,10.30
2023-04-13T20:15:55.840Z,10.25
2023-04-13T20:21:01.687Z,10.19
2023-04-13T20:26:07.358Z,10.17
2023-04-13T20:31:12.839Z,10.13
2023-04-13T20:36:21.136Z,10.07
2023-04-13T20:41:27.207Z,10.00
2023-04-13T20:46:36.140Z,9.94
2023-04-13T20:51:42.256Z,9.91
2023-04-13T20:56:50.817Z,9.86
2023-04-13T21:01:56.256Z,9.77
2023-04-13T21:07:02.373Z,9.66
2023-04-13T21:12:08.241Z,9.56
2023-04-13T21:17:14.106Z,9.47
2023-04-13T21:22:19.702Z,9.43
2023-04-13T21:27:25.444Z,9.43
2023-04-13T21:32:30.986Z,9.46
2023-04-13T21:37:36.629Z,9.45
2023-04-13T21:42:43.161Z,9.41
2023-04-13T21:47:48.755Z,9.31
2023-04-13T21:52:54.116Z,9.09
2023-04-13T21:57:59.594Z,8.84
2023-04-13T22:03:05.231Z,8.70
2023-04-13T22:08:11.028Z,8.60
2023-04-13T22:13:16.526Z,8.37
2023-04-13T22:18:22.221Z,8.23
2023-04-13T22:23:27.722Z,8.06
2023-04-13T22:28:33.303Z,7.95
2023-04-13T22:33:40.482Z,7.77
2023-04-13T22:38:47.480Z,7.62
2023-04-13T22:43:52.803Z,7.40
2023-04-13T22:48:59.081Z,7.26
2023-04-13T22:54:04.989Z,7.15
2023-04-13T22:59:10.641Z,7.11
2023-04-13T23:04:16.542Z,7.08
2023-04-13T23:09:22.372Z,6.99
2023-04-13T23:14:27.834Z,6.88
2023-04-13T23:19:33.271Z,6.82
2023-04-13T23:24:39.024Z,6.78
2023-04-13T23:29:48.084Z,6.67
2023-04-13T23:34:54.513Z,6.52
2023-04-13T23:40:00.436Z,6.44
2023-04-13T23:45:07.558Z,6.48
2023-04-13T23:50:17.779Z,6.47
2023-04-13T23:55:23.243Z,6.43
